Time;durP1;ratioP1;P1;durP2;ratioP2;P2;SDS_P1;SDS_P2;PMS_P1;PMS_P2;Temp;Humidity;BMP_temperature;BMP_pressure;BME280_temperature;BME280_humidity;BME280_pressure;Samples;Min_cycle;Max_cycle;Signal;HPM_P1;HPM_P2
2023/03/08 00:00:14;;;;;;;1.55;0.30;;;;;;;-1.19;55.39;99799.97;5016213;28;20631;-66
2023/03/08 00:02:39;;;;;;;0.70;0.25;;;;;;;-1.10;55.21;99799.03;5010404;28;20620;-66
2023/03/08 00:05:05;;;;;;;2.72;0.30;;;;;;;-1.09;55.45;99796.44;5019059;28;20036;-65
2023/03/08 00:07:31;;;;;;;1.13;0.30;;;;;;;-1.22;55.59;99794.84;5020727;28;20636;-64
2023/03/08 00:09:57;;;;;;;1.52;0.28;;;;;;;-1.43;55.72;99801.84;5014131;28;20037;-72
2023/03/08 00:12:22;;;;;;;1.35;0.20;;;;;;;-2.02;56.89;99803.13;5013869;28;20843;-71
2023/03/08 00:14:49;;;;;;;0.70;0.40;;;;;;;-1.42;55.84;99792.44;5017351;28;20580;-72
2023/03/08 00:17:15;;;;;;;0.90;0.40;;;;;;;-2.06;56.81;99798.88;5019873;28;20045;-71
2023/03/08 00:19:41;;;;;;;1.17;0.20;;;;;;;-1.91;56.77;99796.22;5025471;28;20374;-72
2023/03/08 00:22:07;;;;;;;0.85;0.22;;;;;;;-1.91;56.33;99801.34;5024162;28;20045;-69
2023/03/08 00:24:33;;;;;;;0.63;0.22;;;;;;;-2.60;58.56;99796.53;5019649;28;20128;-69
2023/03/08 00:26:58;;;;;;;1.02;0.52;;;;;;;-2.14;56.74;99785.25;5002678;28;20032;-73
2023/03/08 00:29:24;;;;;;;3.08;0.20;;;;;;;-2.67;58.08;99793.13;5004540;28;20410;-69
2023/03/08 00:31:49;;;;;;;2.05;0.22;;;;;;;-2.02;56.98;99785.19;5011715;28;20038;-68
2023/03/08 00:34:15;;;;;;;0.50;0.10;;;;;;;-1.99;56.34;99785.16;5004552;28;20490;-66
2023/03/08 00:36:41;;;;;;;1.40;0.25;;;;;;;-2.29;56.94;99792.16;5013509;28;20045;-67
2023/03/08 00:39:07;;;;;;;3.58;1.40;;;;;;;-2.48;57.59;99788.78;5021022;28;20048;-66
2023/03/08 00:41:32;;;;;;;0.40;0.10;;;;;;;-2.47;57.56;99781.97;5012899;28;20036;-69
2023/03/08 00:43:58;;;;;;;0.70;0.10;;;;;;;-2.13;56.41;99782.69;5010728;28;20646;-67
2023/03/08 00:46:24;;;;;;;4.13;0.30;;;;;;;-2.27;56.52;99790.44;5019741;28;20029;-68
2023/03/08 00:48:50;;;;;;;2.00;0.60;;;;;;;-2.27;56.51;99785.31;5012381;28;20045;-67
2023/03/08 00:51:18;;;;;;;3.22;0.55;;;;;;;-2.54;57.84;99785.41;5014870;28;20785;-66
2023/03/08 00:53:45;;;;;;;0.65;0.20;;;;;;;-2.41;57.56;99779.38;5011162;28;20042;-68
2023/03/08 00:56:11;;;;;;;1.35;0.40;;;;;;;-2.71;58.68;99783.75;5015084;28;20404;-67
2023/03/08 00:58:40;;;;;;;0.60;0.20;;;;;;;-2.26;57.18;99786.16;5025247;28;20065;-69
2023/03/08 01:01:07;;;;;;;1.58;0.30;;;;;;;-2.29;57.30;99771.69;5021177;28;20056;-67
2023/03/08 01:03:33;;;;;;;1.20;0.10;;;;;;;-2.31;57.73;99786.19;5012192;28;20057;-71
2023/03/08 01:06:04;;;;;;;0.20;0.10;;;;;;;-1.95;57.13;99791.13;5014747;28;20106;-68
2023/03/08 01:08:29;;;;;;;0.40;0.20;;;;;;;-1.75;56.44;99783.31;5018627;28;20048;-69
2023/03/08 01:10:57;;;;;;;1.85;0.35;;;;;;;-2.27;57.62;99780.19;5019314;28;20037;-69
2023/03/08 01:13:32;;;;;;;1.15;0.10;;;;;;;-1.78;56.42;99783.31;5032086;28;20124;-69
2023/03/08 01:15:59;;;;;;;2.67;0.15;;;;;;;-1.73;56.71;99792.69;5021812;28;20041;-68
2023/03/08 01:18:25;;;;;;;3.38;0.10;;;;;;;-1.91;57.36;99790.22;5024821;28;20064;-70
2023/03/08 01:20:59;;;;;;;0.30;0.10;;;;;;;-1.85;57.37;99787.63;5017871;28;20079;-69
2023/03/08 01:23:25;;;;;;;0.20;0.10;;;;;;;-1.70;57.15;99789.25;5024774;28;20049;-70
2023/03/08 01:26:01;;;;;;;2.13;0.20;;;;;;;-1.52;56.84;99780.59;5018245;28;20029;-72
2023/03/08 01:28:27;;;;;;;0.63;0.10;;;;;;;-1.62;56.62;99775.53;5025334;28;20524;-68
2023/03/08 01:30:52;;;;;;;0.93;0.10;;;;;;;-1.38;55.98;99771.91;5034663;28;20038;-68
2023/03/08 01:33:19;;;;;;;1.00;0.10;;;;;;;-1.64;56.01;99766.16;5018917;28;20545;-67
2023/03/08 01:35:48;;;;;;;0.85;0.20;;;;;;;-1.74;55.94;99761.97;5011242;28;20041;-67
2023/03/08 01:38:14;;;;;;;1.77;0.30;;;;;;;-1.88;56.39;99759.50;5018156;28;20096;-67
2023/03/08 01:40:39;;;;;;;0.85;0.10;;;;;;;-2.15;57.18;99763.06;5011887;28;20685;-68
2023/03/08 01:43:21;;;;;;;0.98;0.20;;;;;;;-2.13;57.01;99769.88;5027764;28;20045;-68
2023/03/08 01:45:59;;;;;;;1.42;0.47;;;;;;;-2.22;57.79;99773.34;5026978;28;20045;-68
2023/03/08 01:48:31;;;;;;;1.50;0.10;;;;;;;-2.01;57.15;99777.47;5035937;28;20085;-68
2023/03/08 01:51:02;;;;;;;1.95;0.22;;;;;;;-1.71;56.23;99775.59;5023166;28;20422;-67
2023/03/08 01:53:28;;;;;;;0.65;0.20;;;;;;;-1.57;56.11;99774.66;5020186;28;20036;-67
2023/03/08 01:55:54;;;;;;;0.45;0.20;;;;;;;-2.01;56.55;99771.50;5008678;28;20039;-66
2023/03/08 01:58:20;;;;;;;0.65;0.20;;;;;;;-2.13;57.04;99771.59;5020309;28;20049;-70
2023/03/08 02:00:46;;;;;;;1.45;0.10;;;;;;;-2.19;56.96;99771.63;5023102;28;20047;-72
2023/03/08 02:03:11;;;;;;;2.03;0.20;;;;;;;-1.98;56.91;99770.66;5008703;28;20091;-66
2023/03/08 02:05:42;;;;;;;0.95;0.20;;;;;;;-2.72;59.30;99769.25;5030154;28;20429;-65
2023/03/08 02:08:14;;;;;;;1.90;0.30;;;;;;;-2.55;59.14;99758.13;5010153;28;20068;-67
2023/03/08 02:10:42;;;;;;;1.33;0.60;;;;;;;-2.04;58.25;99756.19;5029774;28;20045;-66
2023/03/08 02:13:09;;;;;;;1.13;0.60;;;;;;;-2.38;58.61;99751.25;5019470;28;20033;-68
2023/03/08 02:15:38;;;;;;;3.47;0.30;;;;;;;-3.01;60.75;99763.38;5004684;28;20034;-67
2023/03/08 02:18:04;;;;;;;2.55;0.50;;;;;;;-2.39;58.57;99754.66;5022399;28;20033;-66
2023/03/08 02:20:36;;;;;;;0.70;0.20;;;;;;;-2.81;59.53;99761.63;5021090;28;20029;-66
2023/03/08 02:23:16;;;;;;;3.78;1.52;;;;;;;-2.26;57.98;99760.56;5019211;28;20044;-68
2023/03/08 02:25:54;;;;;;;0.10;0.08;;;;;;;-2.03;57.67;99763.00;5028807;28;20056;-69
2023/03/08 02:28:21;;;;;;;0.60;0.10;;;;;;;-1.69;56.39;99752.50;5023302;28;20045;-69
2023/03/08 02:30:47;;;;;;;0.63;0.20;;;;;;;-1.59;55.77;99749.03;5022012;28;20044;-70
2023/03/08 02:33:14;;;;;;;1.02;0.10;;;;;;;-1.63;55.49;99744.78;5026643;28;20759;-70
2023/03/08 02:35:41;;;;;;;1.13;0.10;;;;;;;-1.97;55.39;99746.75;5023547;28;20041;-69
2023/03/08 02:38:08;;;;;;;0.30;0.10;;;;;;;-1.92;55.11;99745.84;5005763;28;20128;-69
2023/03/08 02:40:35;;;;;;;5.43;0.17;;;;;;;-2.06;55.53;99739.97;5020056;28;20039;-68
2023/03/08 02:43:01;;;;;;;0.52;0.10;;;;;;;-2.04;54.79;99740.81;5020727;28;20041;-71
2023/03/08 02:45:26;;;;;;;0.10;0.00;;;;;;;-2.19;55.04;99736.63;5028513;28;20505;-70
2023/03/08 02:47:52;;;;;;;0.13;0.03;;;;;;;-2.75;56.98;99741.16;5023173;28;20433;-72
2023/03/08 02:50:17;;;;;;;1.65;0.00;;;;;;;-2.57;56.45;99739.38;5018291;28;20116;-71
2023/03/08 02:52:43;;;;;;;3.75;0.10;;;;;;;-2.43;56.25;99745.28;5027215;28;20053;-71
2023/03/08 02:55:09;;;;;;;0.10;0.00;;;;;;;-2.34;55.87;99737.56;5009852;28;20533;-71
2023/03/08 02:57:35;;;;;;;2.00;0.13;;;;;;;-2.51;56.36;99742.75;5020126;28;20492;-70
2023/03/08 03:00:02;;;;;;;2.08;0.10;;;;;;;-2.40;55.95;99739.28;5010113;28;20029;-71
2023/03/08 03:02:31;;;;;;;0.63;0.17;;;;;;;-2.35;55.49;99740.13;5017089;28;20033;-71
2023/03/08 03:04:57;;;;;;;0.70;0.15;;;;;;;-2.43;55.65;99740.16;5020147;28;20036;-71
2023/03/08 03:07:23;;;;;;;2.47;0.20;;;;;;;-2.45;56.06;99744.44;5027547;28;20526;-71
2023/03/08 03:09:49;;;;;;;9.95;0.63;;;;;;;-2.41;56.14;99746.13;5017414;28;20029;-67
2023/03/08 03:12:15;;;;;;;0.70;0.20;;;;;;;-2.30;56.06;99746.91;5026428;28;20099;-68
2023/03/08 03:14:42;;;;;;;1.08;0.32;;;;;;;-2.31;56.12;99741.78;5029513;28;20037;-71
2023/03/08 03:17:08;;;;;;;1.75;0.50;;;;;;;-2.26;55.92;99753.72;5005660;28;20037;-70
2023/03/08 03:19:33;;;;;;;3.80;0.60;;;;;;;-2.11;55.31;99741.69;5023359;28;20319;-68
2023/03/08 03:21:58;;;;;;;1.10;0.30;;;;;;;-1.95;55.56;99739.91;5019567;28;20102;-69
2023/03/08 03:24:24;;;;;;;1.50;0.60;;;;;;;-1.96;55.15;99739.03;5007890;28;20112;-72
2023/03/08 03:26:53;;;;;;;0.70;0.32;;;;;;;-2.02;54.75;99737.38;5002736;28;20598;-71
2023/03/08 03:29:20;;;;;;;0.52;0.40;;;;;;;-2.09;54.52;99738.28;5006381;28;20672;-71
2023/03/08 03:31:50;;;;;;;2.13;0.60;;;;;;;-2.24;54.16;99734.09;5009031;28;20040;-70
2023/03/08 03:34:17;;;;;;;3.85;0.35;;;;;;;-2.45;54.60;99739.31;5020400;28;20036;-69
2023/03/08 03:36:44;;;;;;;0.85;0.30;;;;;;;-2.63;54.52;99733.41;5011487;28;20124;-71
2023/03/08 03:39:10;;;;;;;2.30;0.30;;;;;;;-2.67;54.60;99739.41;5007428;28;22159;-74
2023/03/08 03:41:38;;;;;;;3.55;0.68;;;;;;;-2.79;54.45;99728.38;5017604;28;20091;-71
2023/03/08 03:44:08;;;;;;;0.52;0.22;;;;;;;-2.85;54.46;99729.22;5020725;28;20450;-71
2023/03/08 03:46:34;;;;;;;2.42;0.55;;;;;;;-2.98;54.33;99741.22;5021990;28;22320;-69
2023/03/08 03:49:00;;;;;;;1.98;0.28;;;;;;;-3.18;54.22;99735.28;5005330;28;20080;-71
2023/03/08 03:51:31;;;;;;;2.30;0.40;;;;;;;-3.29;54.73;99742.97;5019836;28;20086;-70
2023/03/08 03:54:15;;;;;;;1.27;0.20;;;;;;;-3.34;54.56;99749.78;5005323;28;20140;-73
2023/03/08 03:56:43;;;;;;;0.70;0.40;;;;;;;-3.35;54.88;99743.81;5021411;28;20037;-72
2023/03/08 03:59:08;;;;;;;1.00;0.30;;;;;;;-3.33;55.27;99756.59;5018869;28;20106;-72
2023/03/08 04:01:34;;;;;;;1.23;0.30;;;;;;;-3.13;55.50;99760.00;5008958;28;20742;-73
2023/03/08 04:04:09;;;;;;;1.95;0.25;;;;;;;-2.96;55.64;99765.09;5003962;28;20124;-72
2023/03/08 04:06:38;;;;;;;1.17;0.55;;;;;;;-2.85;55.46;99759.91;5010653;28;20912;-72
2023/03/08 04:09:11;;;;;;;4.22;0.40;;;;;;;-2.95;54.96;99754.00;5008210;28;20410;-71
2023/03/08 04:11:39;;;;;;;1.42;0.25;;;;;;;-2.95;54.77;99753.16;5016126;28;20143;-73
2023/03/08 04:14:08;;;;;;;0.77;0.30;;;;;;;-3.00;54.66;99749.75;4986044;28;20041;-73
2023/03/08 04:16:36;;;;;;;4.00;0.40;;;;;;;-3.15;54.55;99743.81;4997037;28;22328;-71
2023/03/08 04:19:10;;;;;;;1.15;0.38;;;;;;;-3.27;54.42;99736.16;5013750;28;20369;-69
2023/03/08 04:21:38;;;;;;;1.53;0.57;;;;;;;-3.40;54.77;99732.78;5005193;28;20037;-71
2023/03/08 04:24:05;;;;;;;0.50;0.20;;;;;;;-3.49;54.68;99731.06;5014349;28;20323;-73
2023/03/08 04:26:30;;;;;;;1.10;0.43;;;;;;;-3.61;54.75;99733.59;5009521;28;21848;-73
2023/03/08 04:28:56;;;;;;;1.42;0.55;;;;;;;-3.63;54.72;99731.91;5017098;28;20040;-73
2023/03/08 04:31:27;;;;;;;2.80;0.45;;;;;;;-3.74;54.63;99739.56;5034105;28;20056;-72
2023/03/08 04:33:54;;;;;;;2.80;0.35;;;;;;;-3.84;54.78;99737.88;5006593;28;20052;-76
2023/03/08 04:36:21;;;;;;;1.58;0.30;;;;;;;-3.86;54.64;99739.56;5021445;28;20812;-76
2023/03/08 04:38:48;;;;;;;1.92;0.30;;;;;;;-4.00;55.30;99737.84;5018690;28;20064;-73
2023/03/08 04:41:14;;;;;;;3.13;0.60;;;;;;;-4.14;54.92;99734.44;5026454;28;20072;-70
2023/03/08 04:43:56;;;;;;;1.50;0.63;;;;;;;-3.98;54.86;99738.72;5021382;28;20043;-71
2023/03/08 04:46:29;;;;;;;0.75;0.32;;;;;;;-4.04;54.83;99732.75;5023922;28;20033;-71
2023/03/08 04:48:56;;;;;;;2.90;0.88;;;;;;;-4.11;54.87;99730.16;4989587;28;20041;-72
2023/03/08 04:51:25;;;;;;;1.15;0.30;;;;;;;-4.08;55.14;99739.53;5014053;28;20044;-74
2023/03/08 04:53:54;;;;;;;2.50;0.60;;;;;;;-4.14;55.08;99737.00;5003448;28;20090;-74
2023/03/08 04:56:19;;;;;;;1.67;0.30;;;;;;;-4.07;55.02;99728.47;5003449;28;20045;-74
2023/03/08 04:58:46;;;;;;;4.20;0.40;;;;;;;-4.12;55.33;99725.06;5026181;28;20076;-74
2023/03/08 05:01:16;;;;;;;2.10;0.40;;;;;;;-3.87;55.17;99728.50;5028112;28;20623;-72
2023/03/08 05:03:43;;;;;;;4.53;0.40;;;;;;;-3.90;55.69;99724.25;5028317;28;20050;-77
2023/03/08 05:06:10;;;;;;;1.40;0.40;;;;;;;-3.57;55.36;99722.53;5025019;28;20926;-72
2023/03/08 05:08:37;;;;;;;1.13;0.52;;;;;;;-3.60;55.29;99721.72;5006902;28;20048;-73
2023/03/08 05:11:04;;;;;;;2.33;0.88;;;;;;;-3.68;54.83;99719.16;5005575;28;20156;-75
2023/03/08 05:13:35;;;;;;;1.40;0.40;;;;;;;-3.73;54.81;99719.16;5002044;28;20049;-67
2023/03/08 05:16:02;;;;;;;3.05;0.30;;;;;;;-3.71;54.68;99721.72;5019991;28;20750;-68
2023/03/08 05:18:27;;;;;;;6.20;0.20;;;;;;;-3.74;54.42;99720.00;5012019;28;20488;-68
2023/03/08 05:21:05;;;;;;;1.80;0.90;;;;;;;-4.28;55.68;99710.56;5008909;28;20069;-65
2023/03/08 05:23:32;;;;;;;5.80;0.50;;;;;;;-4.50;56.33;99710.50;5007399;28;20041;-65
2023/03/08 05:26:01;;;;;;;3.83;1.05;;;;;;;-4.14;56.10;99706.38;5010235;28;20215;-65
2023/03/08 05:28:29;;;;;;;3.33;0.45;;;;;;;-4.07;55.57;99713.19;5023160;28;20045;-68
2023/03/08 05:31:01;;;;;;;1.00;0.40;;;;;;;-4.31;56.25;99709.72;5040801;28;20052;-71
2023/03/08 05:33:30;;;;;;;0.70;0.30;;;;;;;-3.82;55.06;99706.38;5030130;28;20072;-73
2023/03/08 05:35:56;;;;;;;1.35;0.50;;;;;;;-3.82;55.20;99705.53;5023988;28;20100;-73
2023/03/08 05:38:23;;;;;;;3.22;0.43;;;;;;;-3.91;55.12;99697.00;5010904;28;21424;-74
2023/03/08 05:40:49;;;;;;;3.75;0.68;;;;;;;-3.97;55.63;99714.88;5021607;28;20060;-73
2023/03/08 05:43:16;;;;;;;1.35;0.60;;;;;;;-3.79;55.04;99731.06;5002218;28;20678;-72
2023/03/08 05:45:42;;;;;;;4.78;0.50;;;;;;;-3.89;55.53;99713.19;5032115;28;20044;-72
2023/03/08 05:48:08;;;;;;;2.25;1.77;;;;;;;-3.85;56.37;99711.50;5020837;28;20053;-66
2023/03/08 05:50:38;;;;;;;1.35;0.38;;;;;;;-3.40;55.29;99712.31;5009072;28;20123;-71
2023/03/08 05:53:04;;;;;;;1.08;0.50;;;;;;;-3.34;55.05;99712.31;5007395;28;20033;-67
2023/03/08 05:55:30;;;;;;;1.92;0.52;;;;;;;-3.12;54.53;99715.66;5030331;28;20509;-67
2023/03/08 05:57:57;;;;;;;4.85;0.43;;;;;;;-3.18;54.06;99719.94;5005764;28;20509;-69
2023/03/08 06:00:23;;;;;;;1.77;0.60;;;;;;;-3.05;54.11;99719.94;5018110;28;20040;-71
2023/03/08 06:02:53;;;;;;;3.92;0.75;;;;;;;-3.18;54.01;99712.28;5031679;28;20125;-72
2023/03/08 06:05:19;;;;;;;3.05;0.70;;;;;;;-3.11;54.51;99711.44;5008242;28;20064;-70
2023/03/08 06:07:46;;;;;;;2.15;1.00;;;;;;;-3.25;54.58;99708.88;5009028;28;20053;-67
2023/03/08 06:10:12;;;;;;;3.17;1.38;;;;;;;-3.12;54.19;99710.56;5011390;28;20562;-70
2023/03/08 06:12:38;;;;;;;3.60;0.90;;;;;;;-3.53;55.45;99703.81;5006489;28;20521;-72
2023/03/08 06:15:06;;;;;;;2.03;0.93;;;;;;;-3.28;54.69;99708.91;5011037;28;20029;-69
2023/03/08 06:17:35;;;;;;;1.95;0.40;;;;;;;-3.60;56.48;99712.34;5007085;28;20505;-68
2023/03/08 06:20:00;;;;;;;1.00;0.57;;;;;;;-3.48;55.62;99711.47;5002383;28;20038;-74
2023/03/08 06:22:26;;;;;;;1.77;0.50;;;;;;;-3.21;55.93;99702.06;5003170;28;20472;-68
2023/03/08 06:24:53;;;;;;;3.10;0.35;;;;;;;-2.99;55.08;99702.88;5004494;28;20038;-75
2023/03/08 06:27:26;;;;;;;0.93;0.40;;;;;;;-2.77;55.11;99707.06;4984615;28;21138;-71
2023/03/08 06:29:54;;;;;;;4.85;2.17;;;;;;;-2.61;54.49;99718.06;4990476;28;20025;-69
2023/03/08 06:32:21;;;;;;;7.05;1.25;;;;;;;-2.33;54.17;99712.84;5000966;28;20057;-67
2023/03/08 06:34:46;;;;;;;8.60;1.05;;;;;;;-2.11;54.16;99703.28;5002415;28;20812;-68
2023/03/08 06:37:12;;;;;;;1.88;0.50;;;;;;;-2.20;53.39;99706.78;5001957;28;20041;-69
2023/03/08 06:39:38;;;;;;;2.92;0.57;;;;;;;-2.04;53.04;99699.84;5000137;28;20029;-72
2023/03/08 06:42:06;;;;;;;1.75;0.77;;;;;;;-2.03;53.66;99696.41;5001934;28;20041;-71
2023/03/08 06:44:32;;;;;;;13.65;3.88;;;;;;;-1.87;53.24;99698.00;5001900;28;20030;-72
2023/03/08 06:46:57;;;;;;;4.80;1.75;;;;;;;-1.98;53.04;99683.56;4998217;28;20036;-71
2023/03/08 06:49:24;;;;;;;2.50;0.80;;;;;;;-1.87;52.95;99682.63;4988070;28;20034;-73
2023/03/08 06:51:50;;;;;;;2.35;0.85;;;;;;;-1.92;53.34;99688.66;4995311;28;20033;-72
2023/03/08 06:54:16;;;;;;;6.00;1.02;;;;;;;-1.66;52.78;99680.78;4998759;28;20364;-74
2023/03/08 06:56:45;;;;;;;0.95;0.70;;;;;;;-1.66;52.60;99688.47;5007356;28;20763;-72
2023/03/08 06:59:14;;;;;;;3.72;0.60;;;;;;;-2.03;52.56;99681.06;4999359;28;20045;-72
2023/03/08 07:01:40;;;;;;;1.50;0.25;;;;;;;-2.25;52.63;99677.78;5014547;28;20042;-72
2023/03/08 07:04:06;;;;;;;5.20;0.52;;;;;;;-2.86;53.15;99682.34;4998781;28;20042;-73
2023/03/08 07:06:32;;;;;;;2.10;0.63;;;;;;;-2.35;53.02;99679.56;4996792;28;20168;-73
2023/03/08 07:08:57;;;;;;;2.88;0.52;;;;;;;-2.01;52.92;99684.44;4997664;28;20699;-73
2023/03/08 07:11:25;;;;;;;3.10;0.50;;;;;;;-1.86;51.78;99683.50;4997971;28;20045;-73
2023/03/08 07:13:51;;;;;;;1.23;0.55;;;;;;;-1.91;50.89;99680.97;4992317;28;20439;-74
2023/03/08 07:16:16;;;;;;;1.13;0.43;;;;;;;-1.82;51.19;99680.91;4982447;28;20045;-73
2023/03/08 07:18:42;;;;;;;2.33;0.43;;;;;;;-1.67;51.61;99679.06;4997864;28;20049;-74
2023/03/08 07:21:09;;;;;;;1.20;0.35;;;;;;;-1.36;50.84;99674.50;5016875;28;20029;-74
2023/03/08 07:23:34;;;;;;;4.00;0.82;;;;;;;-1.21;50.19;99673.50;5002920;28;20079;-73
2023/03/08 07:26:04;;;;;;;2.97;0.88;;;;;;;-0.85;50.57;99666.28;4983380;28;20029;-70
2023/03/08 07:28:30;;;;;;;4.10;0.60;;;;;;;-0.32;48.81;99671.59;4997073;28;21112;-70
2023/03/08 07:30:55;;;;;;;2.65;0.75;;;;;;;-0.16;47.75;99676.44;4999991;28;20046;-71
2023/03/08 07:33:21;;;;;;;2.95;0.55;;;;;;;0.52;47.17;99675.34;4997128;28;20121;-70
2023/03/08 07:35:47;;;;;;;1.33;0.50;;;;;;;0.61;44.14;99666.63;4984517;28;20042;-70
2023/03/08 07:38:14;;;;;;;5.65;0.82;;;;;;;1.18;45.59;99668.13;4999339;28;20045;-68
2023/03/08 07:40:39;;;;;;;1.15;0.35;;;;;;;1.84;44.10;99665.00;5014710;28;20171;-66
2023/03/08 07:43:05;;;;;;;2.05;0.40;;;;;;;1.73;42.44;99661.81;4997569;28;20417;-67
2023/03/08 07:45:53;;;;;;;2.33;0.30;;;;;;;1.96;41.52;99666.44;5000438;28;20042;-67
2023/03/08 07:48:19;;;;;;;1.90;0.30;;;;;;;2.05;41.83;99670.53;4995773;28;20042;-72
2023/03/08 07:50:45;;;;;;;6.25;0.63;;;;;;;2.67;39.81;99662.09;5006116;28;20053;-73
2023/03/08 07:53:10;;;;;;;2.22;0.68;;;;;;;2.72;40.64;99655.91;4996637;28;20061;-67
2023/03/08 07:55:37;;;;;;;2.83;0.55;;;;;;;3.37;38.15;99667.88;4999713;28;20052;-69
2023/03/08 07:58:03;;;;;;;4.53;1.77;;;;;;;2.98;38.15;99665.53;4996981;28;20042;-68
2023/03/08 08:00:28;;;;;;;5.90;2.38;;;;;;;2.96;39.33;99675.03;4995826;28;20040;-68
2023/03/08 08:02:54;;;;;;;4.22;1.15;;;;;;;2.75;37.98;99668.72;4996915;28;20574;-68
2023/03/08 08:05:20;;;;;;;3.92;1.17;;;;;;;2.80;38.94;99678.06;4994243;28;20410;-68
2023/03/08 08:07:47;;;;;;;1.25;1.00;;;;;;;1.85;40.64;99682.13;4999882;28;20061;-66
2023/03/08 08:10:12;;;;;;;2.80;0.90;;;;;;;2.58;41.72;99688.97;4997246;28;20029;-67
2023/03/08 08:12:38;;;;;;;1.88;0.65;;;;;;;2.58;40.50;99686.41;4998227;28;20176;-70
2023/03/08 08:15:04;;;;;;;3.50;0.70;;;;;;;1.92;42.70;99688.84;4999795;28;20159;-67
2023/03/08 08:17:30;;;;;;;3.95;1.08;;;;;;;2.07;42.42;99691.94;4997712;28;20049;-66
2023/03/08 08:19:55;;;;;;;3.33;0.60;;;;;;;3.06;41.38;99685.94;4997180;28;20048;-68
2023/03/08 08:22:21;;;;;;;2.13;0.70;;;;;;;3.54;38.73;99677.72;4998713;28;20076;-67
2023/03/08 08:24:46;;;;;;;3.25;1.38;;;;;;;2.69;38.76;99689.53;4997735;28;20045;-68
2023/03/08 08:27:12;;;;;;;2.65;0.90;;;;;;;3.29;39.51;99674.16;5001616;28;20733;-66
2023/03/08 08:29:38;;;;;;;2.40;0.73;;;;;;;3.16;40.14;99678.81;4996541;28;21362;-68
2023/03/08 08:32:04;;;;;;;3.15;1.00;;;;;;;2.26;41.65;99677.72;4997128;28;20434;-67
2023/03/08 08:34:30;;;;;;;5.20;0.80;;;;;;;2.82;42.51;99681.44;4996949;28;20663;-68
2023/03/08 08:36:55;;;;;;;1.52;0.65;;;;;;;2.69;42.01;99676.63;5005067;28;20119;-68
2023/03/08 08:39:21;;;;;;;2.17;0.70;;;;;;;2.84;40.29;99680.53;4998896;28;20575;-68
2023/03/08 08:41:48;;;;;;;1.23;0.73;;;;;;;1.22;43.45;99687.78;5006857;28;20045;-70
2023/03/08 08:44:13;;;;;;;2.55;0.68;;;;;;;1.11;43.73;99688.81;5003345;28;20041;-72
2023/03/08 08:46:39;;;;;;;1.30;0.60;;;;;;;1.19;43.65;99685.25;4997997;28;20637;-69
2023/03/08 08:49:04;;;;;;;1.45;0.47;;;;;;;1.42;43.98;99677.94;5001615;28;20057;-70
2023/03/08 08:51:31;;;;;;;1.77;1.02;;;;;;;1.63;44.38;99680.94;5001060;28;20033;-72
2023/03/08 08:53:56;;;;;;;7.00;1.02;;;;;;;1.50;44.02;99682.91;5000671;28;20049;-72
2023/03/08 08:56:24;;;;;;;2.88;0.60;;;;;;;1.87;42.87;99685.53;5000763;28;20410;-71
2023/03/08 08:58:50;;;;;;;2.65;0.70;;;;;;;1.75;42.57;99677.22;5007631;28;20116;-72
2023/03/08 09:01:28;;;;;;;2.50;0.75;;;;;;;1.94;42.87;99679.34;5002682;28;20151;-72
2023/03/08 09:03:55;;;;;;;2.67;0.82;;;;;;;1.61;43.49;99682.69;5002595;28;20041;-72
2023/03/08 09:06:22;;;;;;;2.15;0.70;;;;;;;1.92;44.66;99678.53;5003073;28;20034;-71
2023/03/08 09:08:49;;;;;;;2.65;0.70;;;;;;;2.20;42.71;99677.88;5008785;28;20107;-71
2023/03/08 09:11:15;;;;;;;0.98;0.65;;;;;;;2.37;41.87;99674.03;5005240;28;20030;-71
2023/03/08 09:13:41;;;;;;;3.20;0.85;;;;;;;2.97;40.15;99666.38;5001600;28;20045;-70
2023/03/08 09:16:33;;;;;;;2.72;0.90;;;;;;;3.51;39.22;99667.47;5003868;28;20422;-72
2023/03/08 09:19:01;;;;;;;3.78;0.75;;;;;;;3.72;39.77;99665.13;5003002;28;20050;-71
2023/03/08 09:21:28;;;;;;;2.92;0.85;;;;;;;3.89;39.99;99660.25;5003272;28;20137;-70
2023/03/08 09:23:55;;;;;;;2.78;1.05;;;;;;;4.76;37.70;99651.31;5002184;28;20046;-71
2023/03/08 09:26:20;;;;;;;2.85;1.02;;;;;;;4.89;37.47;99656.09;5002486;28;20088;-71
2023/03/08 09:28:46;;;;;;;4.18;1.10;;;;;;;4.79;37.04;99646.06;5001262;28;20038;-71
2023/03/08 09:31:16;;;;;;;1.58;0.95;;;;;;;5.00;36.98;99644.44;5002974;28;20033;-70
2023/03/08 09:33:44;;;;;;;1.73;1.02;;;;;;;4.77;37.75;99645.25;5002218;28;20038;-71
2023/03/08 09:36:11;;;;;;;1.98;0.80;;;;;;;3.74;39.27;99650.44;5003249;28;20593;-72
2023/03/08 09:38:38;;;;;;;5.57;1.38;;;;;;;3.72;38.80;99647.03;4998593;28;20045;-71
2023/03/08 09:41:27;;;;;;;3.85;0.98;;;;;;;4.05;37.75;99641.69;5003388;28;20354;-72
2023/03/08 09:44:02;;;;;;;3.70;1.00;;;;;;;4.54;40.78;99645.22;4998296;28;20049;-71
2023/03/08 09:46:34;;;;;;;4.43;0.88;;;;;;;4.96;38.50;99645.47;5006442;28;20030;-72
2023/03/08 09:49:04;;;;;;;1.85;1.05;;;;;;;5.42;36.87;99645.50;4998494;28;20049;-72
2023/03/08 09:51:36;;;;;;;2.30;1.33;;;;;;;5.87;36.74;99649.81;4997896;28;20519;-73
2023/03/08 09:54:05;;;;;;;4.30;1.55;;;;;;;4.89;37.60;99650.94;5001110;28;20048;-73
2023/03/08 09:56:38;;;;;;;1.85;1.42;;;;;;;5.02;36.37;99650.44;4997608;28;20494;-73
2023/03/08 09:59:03;;;;;;;3.53;1.67;;;;;;;4.48;37.85;99646.28;4999803;28;20132;-73
2023/03/08 10:01:39;;;;;;;3.90;1.55;;;;;;;4.51;37.10;99647.91;4999265;28;20214;-73
2023/03/08 10:04:42;;;;;;;4.80;1.33;;;;;;;4.70;36.83;99638.63;4998200;28;20038;-74
2023/03/08 10:07:07;;;;;;;;;;;;;;;4.12;39.06;99643.16;4996048;28;20069;-72
2023/03/08 10:09:40;;;;;;;5.32;2.03;;;;;;;3.05;41.04;99637.81;5000044;28;20473;-73
2023/03/08 10:12:19;;;;;;;4.90;2.28;;;;;;;3.54;39.86;99638.97;5016115;28;20058;-73
2023/03/08 10:14:49;;;;;;;5.75;2.00;;;;;;;3.98;39.18;99628.97;5007698;28;20029;-73
2023/03/08 10:17:20;;;;;;;5.18;2.38;;;;;;;4.00;39.14;99629.75;4989691;28;20089;-73
2023/03/08 10:19:57;;;;;;;5.20;2.08;;;;;;;3.33;41.21;99632.69;5014106;28;20144;-72
2023/03/08 10:22:30;;;;;;;4.60;2.17;;;;;;;3.81;41.48;99628.66;4998976;28;20056;-72
2023/03/08 10:25:00;;;;;;;6.90;1.60;;;;;;;3.51;39.86;99623.53;5004644;28;20026;-71
2023/03/08 10:27:28;;;;;;;4.28;2.40;;;;;;;4.13;39.99;99616.41;5000953;28;20052;-72
2023/03/08 10:29:56;;;;;;;6.80;2.10;;;;;;;4.09;40.72;99622.59;5011729;28;20112;-73
2023/03/08 10:32:24;;;;;;;2.75;1.90;;;;;;;3.83;39.59;99615.66;4992483;28;20045;-73
2023/03/08 10:34:49;;;;;;;3.85;1.85;;;;;;;3.74;39.93;99619.41;4991336;28;20056;-72
2023/03/08 10:37:16;;;;;;;4.03;1.40;;;;;;;4.01;40.07;99623.69;5009268;28;20209;-72
2023/03/08 10:39:51;;;;;;;5.03;1.70;;;;;;;4.43;38.64;99612.81;5008946;28;20060;-73
2023/03/08 10:42:20;;;;;;;4.50;2.10;;;;;;;5.02;38.79;99615.91;4998383;28;20566;-72
2023/03/08 10:44:59;;;;;;;3.40;2.35;;;;;;;5.63;36.00;99616.16;4995849;28;20037;-72
2023/03/08 10:47:35;;;;;;;4.10;1.70;;;;;;;6.15;36.89;99609.75;4986841;28;20057;-72
2023/03/08 10:50:12;;;;;;;4.28;1.98;;;;;;;6.33;35.70;99596.06;4997710;28;20069;-71
2023/03/08 10:52:37;;;;;;;3.47;1.40;;;;;;;5.14;37.24;99604.25;5009153;28;20057;-73
2023/03/08 10:55:09;;;;;;;3.45;1.63;;;;;;;4.76;36.95;99598.72;4983580;28;20036;-72
2023/03/08 10:57:35;;;;;;;2.33;1.27;;;;;;;5.50;36.36;99596.81;4994072;28;20146;-71
2023/03/08 11:00:28;;;;;;;3.10;1.63;;;;;;;6.23;35.15;99602.50;4996243;28;20411;-71
2023/03/08 11:03:19;;;;;;;4.93;2.10;;;;;;;5.74;36.89;99599.34;4998281;28;20053;-73
2023/03/08 11:05:53;;;;;;;2.78;1.65;;;;;;;4.41;37.86;99588.72;4993000;28;20092;-72
2023/03/08 11:08:22;;;;;;;6.13;3.45;;;;;;;4.54;38.12;99593.44;4996589;28;20173;-73
2023/03/08 11:10:59;;;;;;;6.50;4.00;;;;;;;5.23;36.86;99589.22;4993525;28;20122;-73
2023/03/08 11:13:30;;;;;;;4.50;2.58;;;;;;;5.52;36.89;99583.78;4994290;28;20037;-72
2023/03/08 11:16:06;;;;;;;2.58;1.00;;;;;;;5.47;36.45;99591.75;4994936;28;20068;-72
2023/03/08 11:18:50;;;;;;;3.08;1.20;;;;;;;5.07;37.61;99582.06;4995901;28;20057;-71
2023/03/08 11:21:21;;;;;;;3.45;0.90;;;;;;;5.09;36.03;99585.47;4990379;28;20041;-73
2023/03/08 11:23:56;;;;;;;3.88;1.25;;;;;;;4.96;37.94;99587.66;4998187;28;20049;-73
2023/03/08 11:26:53;;;;;;;3.33;1.27;;;;;;;4.92;38.18;99588.66;4999641;28;20025;-72
2023/03/08 11:29:25;;;;;;;7.72;1.10;;;;;;;5.14;37.34;99579.19;5000511;28;20470;-72
2023/03/08 11:32:10;;;;;;;;;;;;;;;4.94;36.12;99579.09;5004895;28;20678;-72
2023/03/08 11:34:56;;;;;;;2.63;0.93;;;;;;;5.25;37.13;99584.81;4996003;28;20288;-73
2023/03/08 11:37:36;;;;;;;3.85;1.08;;;;;;;5.62;36.82;99590.31;4982566;28;20038;-73
2023/03/08 11:40:42;;;;;;;3.78;1.13;;;;;;;5.87;36.36;99584.97;4998639;28;20026;-73
2023/03/08 11:43:32;;;;;;;4.55;0.75;;;;;;;6.20;35.36;99569.75;4968538;28;20307;-73